Quevy-le-Petit, Belgium
Current Conditions -  °F | °C
As of 4:25 PM on Thursday 23 Oct 2014 (Local Time) from EBCV Reporting Station
Overcast Overcast  
Wind Chill: 57°   Ceiling: 4700
Heat Index: 57°   Visibility: 6mi
Dew Point: 50°   Wind: 9mph
Humidity: 77%   Direction: 220°SW
Pressure: 30.21"   Gusts: NA
Location:  50.37°N, 3.94°E
Report Text: EBCV 231425Z AUTO 22008KT 9999 OVC047/// 14/10 Q1023 BLU
Loading
Personal Weather Stations






























Interactive Weather Map
Tropical Storm Tracking
New forecast layout! Learn more

10-Day Weather Forecast

Advertisements
Track Severe Weather on mobile